createdAt,value
2023-05-02T00:01:07.139Z,95200.28
2023-05-02T00:03:37.198Z,95199.50
2023-05-02T00:06:06.624Z,95198.06
2023-05-02T00:08:35.948Z,95201.66
2023-05-02T00:11:05.662Z,95203.03
2023-05-02T00:13:36.229Z,95202.91
2023-05-02T00:16:05.674Z,95216.38
2023-05-02T00:18:37.798Z,95217.91
2023-05-02T00:21:07.480Z,95222.75
2023-05-02T00:23:36.651Z,95228.56
2023-05-02T00:26:09.899Z,95223.72
2023-05-02T00:28:46.983Z,95224.22
2023-05-02T00:31:16.809Z,95231.72
2023-05-02T00:33:45.957Z,95228.84
2023-05-02T00:36:16.071Z,95234.06
2023-05-02T00:38:46.903Z,95236.84
2023-05-02T00:41:18.303Z,95240.75
2023-05-02T00:43:48.913Z,95236.69
2023-05-02T00:46:18.096Z,95237.28
2023-05-02T00:48:47.301Z,95225.47
2023-05-02T00:51:16.793Z,95235.34
2023-05-02T00:53:46.363Z,95241.13
2023-05-02T00:56:15.485Z,95234.66
2023-05-02T00:58:46.568Z,95239.66
2023-05-02T01:01:35.503Z,95241.84
2023-05-02T01:04:13.610Z,95228.03
2023-05-02T01:06:55.135Z,95230.25
2023-05-02T01:09:33.028Z,95232.91
2023-05-02T01:12:05.940Z,95224.97
2023-05-02T01:14:40.399Z,95226.72
2023-05-02T01:17:15.417Z,95229.16
2023-05-02T01:19:53.209Z,95227.28
2023-05-02T01:22:24.861Z,95224.72
2023-05-02T01:25:03.797Z,95227.72
2023-05-02T01:27:41.630Z,95229.22
2023-05-02T01:30:14.985Z,95220.41
2023-05-02T01:32:47.282Z,95230.31
2023-05-02T01:35:18.319Z,95230.84
2023-05-02T01:37:50.197Z,95244.22
2023-05-02T01:40:22.855Z,95239.72
2023-05-02T01:42:53.485Z,95239.56
2023-05-02T01:45:25.468Z,95230.09
2023-05-02T01:47:56.491Z,95237.72
2023-05-02T01:50:27.411Z,95239.06
2023-05-02T01:53:00.027Z,95233.84
2023-05-02T01:55:30.440Z,95232.81
2023-05-02T01:57:59.514Z,95228.78
2023-05-02T02:00:31.772Z,95229.28
2023-05-02T02:03:02.008Z,95231.06
2023-05-02T02:05:32.870Z,95225.72
2023-05-02T02:08:01.991Z,95228.44
2023-05-02T02:10:37.538Z,95226.19
2023-05-02T02:13:15.300Z,95223.25
2023-05-02T02:15:49.685Z,95235.22
2023-05-02T02:18:23.334Z,95224.09
2023-05-02T02:20:53.822Z,95225.50
2023-05-02T02:23:27.631Z,95236.69
2023-05-02T02:25:58.608Z,95234.16
2023-05-02T02:28:27.921Z,95234.13
2023-05-02T02:30:59.115Z,95224.44
2023-05-02T02:33:31.977Z,95231.63
2023-05-02T02:36:07.706Z,95220.91
2023-05-02T02:38:44.643Z,95233.50
2023-05-02T02:41:18.324Z,95231.97
2023-05-02T02:43:55.401Z,95237.75
2023-05-02T02:46:36.479Z,95234.63
2023-05-02T02:49:16.805Z,95243.72
2023-05-02T02:51:49.699Z,95240.19
2023-05-02T02:54:27.346Z,95243.84
2023-05-02T02:57:06.192Z,95247.91
2023-05-02T02:59:41.505Z,95258.19
2023-05-02T03:02:16.552Z,95246.59
2023-05-02T03:04:47.505Z,95251.38
2023-05-02T03:07:16.753Z,95251.56
2023-05-02T03:09:47.895Z,95250.66
2023-05-02T03:12:24.404Z,95253.50
2023-05-02T03:14:53.718Z,95251.75
2023-05-02T03:17:26.299Z,95253.19
2023-05-02T03:19:55.882Z,95255.88
2023-05-02T03:22:25.028Z,95258.38
2023-05-02T03:24:54.436Z,95258.31
2023-05-02T03:27:23.642Z,95251.25
2023-05-02T03:29:53.228Z,95261.97
2023-05-02T03:32:22.782Z,95259.53
2023-05-02T03:34:58.630Z,95261.13
2023-05-02T03:37:36.387Z,95259.91
2023-05-02T03:40:06.338Z,95254.03
2023-05-02T03:42:40.281Z,95265.47
2023-05-02T03:45:19.982Z,95274.06
2023-05-02T03:47:50.759Z,95265.56
2023-05-02T03:50:21.857Z,95270.22
2023-05-02T03:52:53.229Z,95276.84
2023-05-02T03:55:30.404Z,95277.19
2023-05-02T03:58:00.949Z,95276.94
2023-05-02T04:00:30.101Z,95269.16
2023-05-02T04:03:05.267Z,95274.22
2023-05-02T04:05:37.759Z,95274.63
2023-05-02T04:08:07.377Z,95272.31
2023-05-02T04:10:36.720Z,95269.84
2023-05-02T04:13:08.775Z,95276.63
2023-05-02T04:15:40.850Z,95277.63
2023-05-02T04:18:10.142Z,95275.59
2023-05-02T04:20:44.238Z,95275.06
2023-05-02T04:23:15.130Z,95279.34
2023-05-02T04:25:53.722Z,95278.53
2023-05-02T04:28:25.464Z,95279.34
2023-05-02T04:30:56.193Z,95291.31
2023-05-02T04:33:26.639Z,95292.13
2023-05-02T04:35:58.574Z,95285.69
2023-05-02T04:38:28.058Z,95287.50
2023-05-02T04:40:57.136Z,95290.38
2023-05-02T04:43:34.310Z,95293.22
2023-05-02T04:46:04.988Z,95295.84
2023-05-02T04:48:42.389Z,95294.00
2023-05-02T04:51:14.881Z,95298.91
2023-05-02T04:53:47.245Z,95300.25
2023-05-02T04:56:17.281Z,95294.63
2023-05-02T04:58:46.667Z,95306.75
2023-05-02T05:01:16.654Z,95300.28
2023-05-02T05:03:46.642Z,95295.91
2023-05-02T05:06:19.667Z,95303.63
2023-05-02T05:08:50.492Z,95304.19
2023-05-02T05:11:19.861Z,95303.06
2023-05-02T05:13:49.568Z,95300.50
2023-05-02T05:16:19.263Z,95296.56
2023-05-02T05:18:49.643Z,95305.31
2023-05-02T05:21:20.460Z,95302.50
2023-05-02T05:23:50.498Z,95299.06
2023-05-02T05:26:27.121Z,95296.31
2023-05-02T05:28:57.215Z,95302.94
2023-05-02T05:31:29.344Z,95300.03
2023-05-02T05:34:01.577Z,95306.50
2023-05-02T05:36:33.724Z,95305.97
2023-05-02T05:39:04.622Z,95308.13
2023-05-02T05:41:35.659Z,95304.81
2023-05-02T05:44:08.386Z,95310.63
2023-05-02T05:46:37.440Z,95311.94
2023-05-02T05:49:07.863Z,95310.13
2023-05-02T05:51:40.700Z,95314.69
2023-05-02T05:54:10.399Z,95320.25
2023-05-02T05:56:40.697Z,95313.13
2023-05-02T05:59:14.452Z,95323.34
2023-05-02T06:01:44.295Z,95326.63
2023-05-02T06:04:15.005Z,95337.66
2023-05-02T06:06:51.708Z,95324.66
2023-05-02T06:09:20.957Z,95329.44
2023-05-02T06:11:50.134Z,95329.31
2023-05-02T06:14:19.774Z,95325.91
2023-05-02T06:16:51.608Z,95321.59
2023-05-02T06:19:20.964Z,95317.44
2023-05-02T06:21:51.641Z,95314.53
2023-05-02T06:24:20.867Z,95310.75
2023-05-02T06:26:49.980Z,95318.19
2023-05-02T06:29:19.141Z,95317.22
2023-05-02T06:31:48.355Z,95321.06
2023-05-02T06:34:17.388Z,95327.94
2023-05-02T06:36:46.588Z,95323.97
2023-05-02T06:39:17.272Z,95322.28
2023-05-02T06:41:46.366Z,95328.59
2023-05-02T06:44:18.930Z,95316.66
2023-05-02T06:46:48.210Z,95323.13
2023-05-02T06:49:17.386Z,95324.84
2023-05-02T06:51:46.484Z,95328.00
2023-05-02T06:54:17.460Z,95319.78
2023-05-02T06:56:46.611Z,95326.50
2023-05-02T06:59:16.996Z,95325.78
2023-05-02T07:01:46.701Z,95321.78
2023-05-02T07:04:15.942Z,95322.94
2023-05-02T07:06:45.226Z,95323.75
2023-05-02T07:09:14.521Z,95321.09
2023-05-02T07:11:45.081Z,95329.91
2023-05-02T07:14:14.180Z,95328.84
2023-05-02T07:16:43.523Z,95330.47
2023-05-02T07:19:12.896Z,95318.69
2023-05-02T07:21:42.031Z,95339.28
2023-05-02T07:24:11.112Z,95333.13
2023-05-02T07:26:40.180Z,95333.69
2023-05-02T07:29:10.797Z,95332.59
2023-05-02T07:31:39.882Z,95330.47
2023-05-02T07:34:09.078Z,95332.81
2023-05-02T07:36:38.124Z,95332.84
2023-05-02T07:39:07.346Z,95329.06
2023-05-02T07:41:36.734Z,95323.44
2023-05-02T07:44:06.146Z,95319.13
2023-05-02T07:46:36.871Z,95338.75
2023-05-02T07:49:06.148Z,95329.63
2023-05-02T07:51:35.265Z,95321.88
2023-05-02T07:54:04.560Z,95325.34
2023-05-02T07:56:33.791Z,95326.63
2023-05-02T07:59:03.706Z,95319.34
2023-05-02T08:01:36.483Z,95327.88
2023-05-02T08:04:05.972Z,95323.38
2023-05-02T08:06:35.497Z,95326.75
2023-05-02T08:09:04.791Z,95328.03
2023-05-02T08:11:33.923Z,95318.94
2023-05-02T08:14:03.696Z,95315.97
2023-05-02T08:16:33.045Z,95334.72
2023-05-02T08:19:03.580Z,95335.63
2023-05-02T08:21:32.812Z,95318.72
2023-05-02T08:24:02.544Z,95326.13
2023-05-02T08:26:31.789Z,95319.44
2023-05-02T08:29:01.430Z,95325.28
2023-05-02T08:31:30.623Z,95324.91
2023-05-02T08:33:59.760Z,95321.81
2023-05-02T08:36:30.394Z,95317.53
2023-05-02T08:38:59.603Z,95316.06
2023-05-02T08:41:31.491Z,95319.22
2023-05-02T08:44:01.579Z,95321.34
2023-05-02T08:46:32.550Z,95314.72
2023-05-02T08:49:02.803Z,95324.44
2023-05-02T08:51:34.237Z,95318.16
2023-05-02T08:54:04.687Z,95307.22
2023-05-02T08:56:34.645Z,95318.72
2023-05-02T08:59:03.964Z,95312.66
2023-05-02T09:01:35.090Z,95303.44
2023-05-02T09:04:05.562Z,95303.44
2023-05-02T09:06:37.919Z,95305.50
2023-05-02T09:09:07.245Z,95295.56
2023-05-02T09:11:38.294Z,95299.91
2023-05-02T09:14:17.043Z,95299.84
2023-05-02T09:16:46.672Z,95293.19
2023-05-02T09:19:26.496Z,95301.34
2023-05-02T09:22:03.804Z,95293.69
2023-05-02T09:24:33.129Z,95301.31
2023-05-02T09:27:06.868Z,95297.31
2023-05-02T09:29:39.301Z,95299.50
2023-05-02T09:32:08.767Z,95300.38
2023-05-02T09:34:39.646Z,95301.09
2023-05-02T09:37:11.769Z,95292.03
2023-05-02T09:39:40.944Z,95285.91
2023-05-02T09:42:10.292Z,95281.75
2023-05-02T09:44:40.558Z,95284.53
2023-05-02T09:47:09.984Z,95276.09
2023-05-02T09:49:45.149Z,95278.63
2023-05-02T09:52:17.425Z,95273.66
2023-05-02T09:54:47.815Z,95277.09
2023-05-02T09:57:16.951Z,95269.59
2023-05-02T09:59:56.844Z,95275.41
2023-05-02T10:02:27.020Z,95275.41
2023-05-02T10:04:59.656Z,95266.66
2023-05-02T10:07:30.690Z,95268.16
2023-05-02T10:10:03.134Z,95258.72
2023-05-02T10:12:35.077Z,95251.66
2023-05-02T10:15:06.302Z,95252.81
2023-05-02T10:17:43.411Z,95252.72
2023-05-02T10:20:17.321Z,95249.34
2023-05-02T10:22:51.195Z,95244.78
2023-05-02T10:25:21.261Z,95247.81
2023-05-02T10:27:51.030Z,95248.19
2023-05-02T10:30:21.003Z,95257.13
2023-05-02T10:32:53.192Z,95257.91
2023-05-02T10:35:24.661Z,95245.28
2023-05-02T10:37:55.890Z,95250.03
2023-05-02T10:40:25.055Z,95247.97
2023-05-02T10:42:55.192Z,95244.47
2023-05-02T10:45:35.048Z,95248.03
2023-05-02T10:48:17.928Z,95240.38
2023-05-02T10:50:48.825Z,95239.22
2023-05-02T10:53:44.307Z,95240.31
2023-05-02T10:56:22.603Z,95237.78
2023-05-02T10:58:53.778Z,95239.06
2023-05-02T11:01:43.062Z,95235.28
2023-05-02T11:04:12.812Z,95228.28
2023-05-02T11:07:19.692Z,95233.13
2023-05-02T11:09:50.520Z,95223.31
2023-05-02T11:12:48.806Z,95226.28
2023-05-02T11:16:00.098Z,95224.66
2023-05-02T11:18:29.334Z,95215.06
2023-05-02T11:21:39.376Z,95227.06
2023-05-02T11:24:39.918Z,95218.00
2023-05-02T11:27:41.590Z,95221.19
2023-05-02T11:30:11.498Z,95213.66
2023-05-02T11:33:20.394Z,95210.81
2023-05-02T11:35:50.447Z,95210.09
2023-05-02T11:38:22.460Z,95204.16
2023-05-02T11:40:53.289Z,95204.66
2023-05-02T11:43:25.417Z,95203.56
2023-05-02T11:45:55.488Z,95194.88
2023-05-02T11:48:27.834Z,95198.38
2023-05-02T11:51:02.410Z,95181.38
2023-05-02T11:53:32.444Z,95183.06
2023-05-02T11:56:03.137Z,95191.19
2023-05-02T11:58:34.614Z,95173.84
2023-05-02T12:01:14.829Z,95181.97
2023-05-02T12:03:44.623Z,95175.91
2023-05-02T12:06:16.188Z,95177.81
2023-05-02T12:08:46.345Z,95168.28
2023-05-02T12:11:16.654Z,95169.22
2023-05-02T12:13:49.124Z,95163.34
2023-05-02T12:16:19.123Z,95155.72
2023-05-02T12:18:49.889Z,95156.19
2023-05-02T12:21:19.970Z,95153.78
2023-05-02T12:23:49.502Z,95150.91
2023-05-02T12:26:19.676Z,95141.50
2023-05-02T12:28:55.023Z,95141.69
2023-05-02T12:31:24.672Z,95139.13
2023-05-02T12:33:57.965Z,95136.75
2023-05-02T12:36:28.769Z,95132.28
2023-05-02T12:39:00.138Z,95128.06
2023-05-02T12:41:37.407Z,95120.81
2023-05-02T12:44:08.672Z,95119.81
2023-05-02T12:46:38.024Z,95127.25
2023-05-02T12:49:08.916Z,95116.75
2023-05-02T12:51:38.528Z,95117.34
2023-05-02T12:54:08.206Z,95114.91
2023-05-02T12:56:44.407Z,95118.38
2023-05-02T12:59:28.991Z,95112.75
2023-05-02T13:01:58.206Z,95108.09
2023-05-02T13:04:36.562Z,95108.25
2023-05-02T13:07:06.215Z,95109.81
2023-05-02T13:09:35.411Z,95097.38
2023-05-02T13:12:05.003Z,95095.22
2023-05-02T13:14:35.904Z,95095.88
2023-05-02T13:17:05.125Z,95101.72
2023-05-02T13:19:34.424Z,95099.03
2023-05-02T13:22:03.679Z,95100.25
2023-05-02T13:24:32.803Z,95096.41
2023-05-02T13:27:02.314Z,95095.19
2023-05-02T13:29:31.967Z,95091.84
2023-05-02T13:32:02.886Z,95093.91
2023-05-02T13:34:32.374Z,95084.34
2023-05-02T13:37:01.695Z,95089.31
2023-05-02T13:39:31.247Z,95076.63
2023-05-02T13:42:03.598Z,95079.94
2023-05-02T13:44:34.129Z,95075.34
2023-05-02T13:47:04.759Z,95079.44
2023-05-02T13:49:34.101Z,95078.94
2023-05-02T13:52:03.392Z,95071.88
2023-05-02T13:54:32.769Z,95074.97
2023-05-02T13:57:02.929Z,95066.00
2023-05-02T13:59:32.162Z,95058.47
2023-05-02T14:02:01.493Z,95057.88
2023-05-02T14:04:32.342Z,95064.47
2023-05-02T14:07:01.622Z,95064.69
2023-05-02T14:09:31.012Z,95069.88
2023-05-02T14:12:00.239Z,95075.66
2023-05-02T14:14:29.336Z,95075.44
2023-05-02T14:16:58.399Z,95070.56
2023-05-02T14:19:27.795Z,95078.53
2023-05-02T14:21:58.431Z,95079.84
2023-05-02T14:24:27.860Z,95080.13
2023-05-02T14:27:01.986Z,95072.16
2023-05-02T14:29:31.148Z,95069.69
2023-05-02T14:32:00.399Z,95077.44
2023-05-02T14:34:29.702Z,95065.19
2023-05-02T14:37:00.240Z,95064.19
2023-05-02T14:39:29.569Z,95072.03
2023-05-02T14:41:58.905Z,95065.50
2023-05-02T14:44:28.054Z,95061.31
2023-05-02T14:46:57.275Z,95056.22
2023-05-02T14:49:26.591Z,95055.25
2023-05-02T14:51:57.134Z,95062.41
2023-05-02T14:54:32.175Z,95061.91
2023-05-02T14:57:02.445Z,95062.13
2023-05-02T14:59:32.302Z,95056.94
2023-05-02T15:02:01.867Z,95068.78
2023-05-02T15:04:32.131Z,95063.25
2023-05-02T15:07:02.166Z,95057.22
2023-05-02T15:09:32.865Z,95066.75
2023-05-02T15:12:03.157Z,95060.25
2023-05-02T15:14:32.325Z,95060.38
2023-05-02T15:17:01.683Z,95061.47
2023-05-02T15:19:31.162Z,95054.34
2023-05-02T15:22:00.350Z,95054.06
2023-05-02T15:24:29.718Z,95053.19
2023-05-02T15:27:00.280Z,95058.91
2023-05-02T15:29:29.602Z,95052.44
2023-05-02T15:31:58.998Z,95063.03
2023-05-02T15:34:29.159Z,95049.34
2023-05-02T15:37:01.478Z,95047.19
2023-05-02T15:39:30.823Z,95042.22
2023-05-02T15:42:05.248Z,95048.97
2023-05-02T15:44:37.389Z,95050.81
2023-05-02T15:47:07.047Z,95042.88
2023-05-02T15:49:36.947Z,95046.19
2023-05-02T15:52:06.266Z,95041.66
2023-05-02T15:54:35.632Z,95053.06
2023-05-02T15:57:06.233Z,95044.00
2023-05-02T15:59:35.397Z,95040.06
2023-05-02T16:02:05.061Z,95034.41
2023-05-02T16:04:35.262Z,95036.72
2023-05-02T16:07:04.678Z,95041.44
2023-05-02T16:09:33.985Z,95037.41
2023-05-02T16:12:04.144Z,95039.66
2023-05-02T16:14:35.188Z,95048.56
2023-05-02T16:17:04.504Z,95042.97
2023-05-02T16:19:34.486Z,95048.19
2023-05-02T16:22:03.750Z,95043.16
2023-05-02T16:24:32.950Z,95050.06
2023-05-02T16:27:02.122Z,95053.94
2023-05-02T16:29:31.440Z,95049.50
2023-05-02T16:32:02.353Z,95052.00
2023-05-02T16:34:34.135Z,95060.91
2023-05-02T16:37:04.000Z,95062.84
2023-05-02T16:39:34.657Z,95062.56
2023-05-02T16:42:04.486Z,95062.91
2023-05-02T16:44:33.746Z,95072.66
2023-05-02T16:47:04.839Z,95077.56
2023-05-02T16:49:34.214Z,95068.28
2023-05-02T16:52:03.453Z,95078.69
2023-05-02T16:54:32.804Z,95079.63
2023-05-02T16:57:04.163Z,95072.13
2023-05-02T16:59:33.395Z,95078.66
2023-05-02T17:02:04.535Z,95081.59
2023-05-02T17:04:34.057Z,95083.28
2023-05-02T17:07:03.442Z,95077.22
2023-05-02T17:09:33.451Z,95084.41
2023-05-02T17:12:03.206Z,95082.81
2023-05-02T17:14:33.485Z,95084.22
2023-05-02T17:17:04.644Z,95090.72
2023-05-02T17:19:34.281Z,95094.81
2023-05-02T17:22:05.461Z,95098.84
2023-05-02T17:24:35.957Z,95103.19
2023-05-02T17:27:05.506Z,95105.31
2023-05-02T17:29:35.600Z,95106.44
2023-05-02T17:32:06.952Z,95102.16
2023-05-02T17:34:36.896Z,95106.16
2023-05-02T17:37:07.548Z,95111.03
2023-05-02T17:39:36.800Z,95109.19
2023-05-02T17:42:06.463Z,95106.28
2023-05-02T17:44:36.886Z,95111.34
2023-05-02T17:47:08.845Z,95113.78
2023-05-02T17:49:38.122Z,95114.06
2023-05-02T17:52:07.549Z,95116.22
2023-05-02T17:54:36.885Z,95119.13
2023-05-02T17:57:06.368Z,95126.91
2023-05-02T17:59:35.648Z,95115.91
2023-05-02T18:02:05.321Z,95114.88
2023-05-02T18:04:36.906Z,95130.09
2023-05-02T18:07:06.475Z,95129.03
2023-05-02T18:09:35.973Z,95127.41
2023-05-02T18:12:06.903Z,95136.78
2023-05-02T18:14:36.031Z,95128.72
2023-05-02T18:17:06.081Z,95135.94
2023-05-02T18:19:38.404Z,95138.06
2023-05-02T18:22:07.753Z,95139.41
2023-05-02T18:24:36.989Z,95139.59
2023-05-02T18:27:06.622Z,95139.06
2023-05-02T18:29:37.823Z,95141.44
2023-05-02T18:32:08.101Z,95137.69
2023-05-02T18:34:39.403Z,95138.22
2023-05-02T18:37:08.947Z,95135.19
2023-05-02T18:39:38.062Z,95133.03
2023-05-02T18:42:08.580Z,95129.56
2023-05-02T18:44:37.954Z,95127.97
2023-05-02T18:47:07.354Z,95141.25
2023-05-02T18:49:36.729Z,95137.28
2023-05-02T18:52:07.754Z,95130.63
2023-05-02T18:54:37.530Z,95131.94
2023-05-02T18:57:07.002Z,95151.88
2023-05-02T18:59:36.191Z,95148.41
2023-05-02T19:02:05.466Z,95147.34
2023-05-02T19:04:34.898Z,95144.63
2023-05-02T19:07:04.326Z,95148.59
2023-05-02T19:09:35.132Z,95149.72
2023-05-02T19:12:04.458Z,95149.16
2023-05-02T19:14:33.792Z,95145.19
2023-05-02T19:17:06.094Z,95147.56
2023-05-02T19:19:36.019Z,95146.44
2023-05-02T19:22:06.633Z,95150.72
2023-05-02T19:24:39.151Z,95153.94
2023-05-02T19:27:10.429Z,95148.06
2023-05-02T19:29:40.307Z,95156.59
2023-05-02T19:32:10.899Z,95154.44
2023-05-02T19:34:40.306Z,95153.34
2023-05-02T19:37:09.642Z,95162.44
2023-05-02T19:39:40.657Z,95157.66
2023-05-02T19:42:10.073Z,95159.50
2023-05-02T19:44:39.214Z,95152.81
2023-05-02T19:47:08.714Z,95160.78
2023-05-02T19:49:37.776Z,95159.72
2023-05-02T19:52:07.798Z,95157.47
2023-05-02T19:54:37.138Z,95163.69
2023-05-02T19:57:07.567Z,95155.38
2023-05-02T19:59:37.189Z,95149.25
2023-05-02T20:02:06.781Z,95157.22
2023-05-02T20:04:36.315Z,95149.28
2023-05-02T20:07:05.748Z,95141.88
2023-05-02T20:09:35.068Z,95145.94
2023-05-02T20:12:04.260Z,95149.47
2023-05-02T20:14:38.099Z,95150.00
2023-05-02T20:17:07.585Z,95151.88
2023-05-02T20:19:36.874Z,95159.38
2023-05-02T20:22:06.214Z,95162.28
2023-05-02T20:24:35.403Z,95165.22
2023-05-02T20:27:04.691Z,95154.25
2023-05-02T20:29:33.826Z,95155.88
2023-05-02T20:32:04.549Z,95167.28
2023-05-02T20:34:36.759Z,95167.50
2023-05-02T20:37:07.842Z,95164.03
2023-05-02T20:39:38.368Z,95170.38
2023-05-02T20:42:07.892Z,95175.72
2023-05-02T20:44:37.056Z,95171.94
2023-05-02T20:47:07.796Z,95176.69
2023-05-02T20:49:36.988Z,95166.22
2023-05-02T20:52:06.597Z,95168.13
2023-05-02T20:54:35.979Z,95169.69
2023-05-02T20:57:05.530Z,95159.81
2023-05-02T20:59:34.560Z,95161.13
2023-05-02T21:02:03.953Z,95163.00
2023-05-02T21:04:34.758Z,95163.47
2023-05-02T21:07:04.642Z,95164.28
2023-05-02T21:09:33.978Z,95160.25
2023-05-02T21:12:03.216Z,95161.31
2023-05-02T21:14:32.512Z,95168.19
2023-05-02T21:17:01.483Z,95162.84
2023-05-02T21:19:33.258Z,95170.25
2023-05-02T21:22:03.802Z,95170.66
2023-05-02T21:24:33.088Z,95179.94
2023-05-02T21:27:02.258Z,95178.59
2023-05-02T21:29:31.481Z,95177.38
2023-05-02T21:32:00.577Z,95178.97
2023-05-02T21:34:29.841Z,95181.22
2023-05-02T21:36:58.930Z,95180.31
2023-05-02T21:39:29.578Z,95188.19
2023-05-02T21:41:58.715Z,95185.41
2023-05-02T21:44:27.672Z,95185.66
2023-05-02T21:46:56.824Z,95194.19
2023-05-02T21:49:26.020Z,95196.38
2023-05-02T21:51:55.074Z,95197.69
2023-05-02T21:54:24.393Z,95197.69
2023-05-02T21:56:55.438Z,95201.13
2023-05-02T21:59:24.581Z,95197.81
2023-05-02T22:01:53.741Z,95193.66
2023-05-02T22:04:22.826Z,95199.84
2023-05-02T22:06:54.669Z,95188.31
2023-05-02T22:09:23.881Z,95188.63
2023-05-02T22:11:54.697Z,95177.25
2023-05-02T22:14:33.594Z,95186.53
2023-05-02T22:17:13.251Z,95187.00
2023-05-02T22:19:42.267Z,95189.28
2023-05-02T22:22:11.472Z,95195.22
2023-05-02T22:24:40.659Z,95190.84
2023-05-02T22:27:11.211Z,95203.25
2023-05-02T22:29:40.262Z,95190.31
2023-05-02T22:32:09.366Z,95201.31
2023-05-02T22:34:38.406Z,95205.00
2023-05-02T22:37:07.743Z,95204.47
2023-05-02T22:39:36.799Z,95211.97
2023-05-02T22:42:06.080Z,95214.06
2023-05-02T22:44:50.690Z,95221.38
2023-05-02T22:47:23.025Z,95232.22
2023-05-02T22:49:52.862Z,95232.03
2023-05-02T22:52:22.715Z,95238.78
2023-05-02T22:54:51.834Z,95238.38
2023-05-02T22:57:21.359Z,95243.09
2023-05-02T22:59:51.938Z,95241.72
2023-05-02T23:02:21.220Z,95241.81
2023-05-02T23:04:50.288Z,95238.34
2023-05-02T23:07:19.463Z,95233.75
2023-05-02T23:09:48.586Z,95213.34
2023-05-02T23:12:17.910Z,95182.50
2023-05-02T23:14:47.239Z,95153.56
2023-05-02T23:17:18.006Z,95167.88
2023-05-02T23:19:47.027Z,95201.81
2023-05-02T23:22:16.370Z,95218.53
2023-05-02T23:24:47.744Z,95227.63
2023-05-02T23:27:17.074Z,95211.41
2023-05-02T23:29:46.595Z,95218.91
2023-05-02T23:32:15.904Z,95231.09
2023-05-02T23:34:46.871Z,95234.91
2023-05-02T23:37:16.299Z,95227.44
2023-05-02T23:39:45.483Z,95216.00
2023-05-02T23:42:14.854Z,95221.69
2023-05-02T23:44:44.555Z,95226.00
2023-05-02T23:47:14.071Z,95219.72
2023-05-02T23:49:43.309Z,95218.38
2023-05-02T23:52:13.928Z,95206.03
2023-05-02T23:54:42.929Z,95200.50
2023-05-02T23:57:12.119Z,95208.34
2023-05-02T23:59:41.294Z,95220.69
